sensor_id;sensor_type;location;lat;lon;timestamp;temperature;humidity
8475;DHT22;4274;52.012;8.448;2023-08-17T00:02:13;17.60;99.90
8475;DHT22;4274;52.012;8.448;2023-08-17T00:04:39;17.60;99.90
8475;DHT22;4274;52.012;8.448;2023-08-17T00:07:05;17.60;99.90
8475;DHT22;4274;52.012;8.448;2023-08-17T00:09:31;17.50;99.90
8475;DHT22;4274;52.012;8.448;2023-08-17T00:11:57;17.50;99.90
8475;DHT22;4274;52.012;8.448;2023-08-17T00:14:22;17.40;99.90
8475;DHT22;4274;52.012;8.448;2023-08-17T00:16:50;17.40;99.90
8475;DHT22;4274;52.012;8.448;2023-08-17T00:19:16;17.40;99.90
8475;DHT22;4274;52.012;8.448;2023-08-17T00:21:41;17.30;99.90
8475;DHT22;4274;52.012;8.448;2023-08-17T00:24:07;17.30;99.90
8475;DHT22;4274;52.012;8.448;2023-08-17T00:26:33;17.30;99.90
8475;DHT22;4274;52.012;8.448;2023-08-17T00:28:59;17.30;99.90
8475;DHT22;4274;52.012;8.448;2023-08-17T00:31:24;17.30;99.90
8475;DHT22;4274;52.012;8.448;2023-08-17T00:33:50;17.20;99.90
8475;DHT22;4274;52.012;8.448;2023-08-17T00:36:15;17.20;99.90
8475;DHT22;4274;52.012;8.448;2023-08-17T00:38:41;17.00;99.90
8475;DHT22;4274;52.012;8.448;2023-08-17T00:41:06;16.90;99.90
8475;DHT22;4274;52.012;8.448;2023-08-17T00:43:32;16.80;99.90
8475;DHT22;4274;52.012;8.448;2023-08-17T00:45:58;16.70;99.90
8475;DHT22;4274;52.012;8.448;2023-08-17T00:48:23;16.60;99.90
8475;DHT22;4274;52.012;8.448;2023-08-17T00:50:50;16.40;99.90
8475;DHT22;4274;52.012;8.448;2023-08-17T00:53:18;16.40;99.90
8475;DHT22;4274;52.012;8.448;2023-08-17T00:55:44;16.40;99.90
8475;DHT22;4274;52.012;8.448;2023-08-17T00:58:10;16.30;99.90
8475;DHT22;4274;52.012;8.448;2023-08-17T01:00:36;16.30;99.90
8475;DHT22;4274;52.012;8.448;2023-08-17T01:03:02;16.20;99.90
8475;DHT22;4274;52.012;8.448;2023-08-17T01:05:28;16.20;99.90
8475;DHT22;4274;52.012;8.448;2023-08-17T01:07:54;16.20;99.90
8475;DHT22;4274;52.012;8.448;2023-08-17T01:10:20;16.20;99.90
8475;DHT22;4274;52.012;8.448;2023-08-17T01:15:35;16.10;99.90
8475;DHT22;4274;52.012;8.448;2023-08-17T01:18:18;16.10;99.90
8475;DHT22;4274;52.012;8.448;2023-08-17T01:20:47;16.10;99.90
8475;DHT22;4274;52.012;8.448;2023-08-17T01:23:13;16.00;99.90
8475;DHT22;4274;52.012;8.448;2023-08-17T01:25:39;16.10;99.90
8475;DHT22;4274;52.012;8.448;2023-08-17T01:28:05;16.10;99.90
8475;DHT22;4274;52.012;8.448;2023-08-17T01:30:43;16.10;99.90
8475;DHT22;4274;52.012;8.448;2023-08-17T01:33:11;16.10;99.90
8475;DHT22;4274;52.012;8.448;2023-08-17T01:35:48;16.10;99.90
8475;DHT22;4274;52.012;8.448;2023-08-17T01:38:18;16.10;99.90
8475;DHT22;4274;52.012;8.448;2023-08-17T01:40:47;16.10;99.90
8475;DHT22;4274;52.012;8.448;2023-08-17T01:43:15;16.10;99.90
8475;DHT22;4274;52.012;8.448;2023-08-17T01:45:41;16.00;99.90
8475;DHT22;4274;52.012;8.448;2023-08-17T01:48:07;16.00;99.90
8475;DHT22;4274;52.012;8.448;2023-08-17T01:50:32;16.00;99.90
8475;DHT22;4274;52.012;8.448;2023-08-17T01:52:58;16.00;99.90
8475;DHT22;4274;52.012;8.448;2023-08-17T01:55:24;15.90;99.90
8475;DHT22;4274;52.012;8.448;2023-08-17T01:57:49;15.90;99.90
8475;DHT22;4274;52.012;8.448;2023-08-17T02:00:15;15.90;99.90
8475;DHT22;4274;52.012;8.448;2023-08-17T02:02:41;15.90;99.90
8475;DHT22;4274;52.012;8.448;2023-08-17T02:05:07;15.90;99.90
8475;DHT22;4274;52.012;8.448;2023-08-17T02:07:33;15.80;99.90
8475;DHT22;4274;52.012;8.448;2023-08-17T02:09:58;15.80;99.90
8475;DHT22;4274;52.012;8.448;2023-08-17T02:12:24;15.80;99.90
8475;DHT22;4274;52.012;8.448;2023-08-17T02:14:50;15.70;99.90
8475;DHT22;4274;52.012;8.448;2023-08-17T02:17:15;15.70;99.90
8475;DHT22;4274;52.012;8.448;2023-08-17T02:19:44;15.70;99.90
8475;DHT22;4274;52.012;8.448;2023-08-17T02:22:10;15.70;99.90
8475;DHT22;4274;52.012;8.448;2023-08-17T02:24:35;15.70;99.90
8475;DHT22;4274;52.012;8.448;2023-08-17T02:27:01;15.70;99.90
8475;DHT22;4274;52.012;8.448;2023-08-17T02:29:27;15.70;99.90
8475;DHT22;4274;52.012;8.448;2023-08-17T02:31:52;15.70;99.90
8475;DHT22;4274;52.012;8.448;2023-08-17T02:34:18;15.70;99.90
8475;DHT22;4274;52.012;8.448;2023-08-17T02:36:43;15.70;99.90
8475;DHT22;4274;52.012;8.448;2023-08-17T02:39:09;15.70;99.90
8475;DHT22;4274;52.012;8.448;2023-08-17T02:41:34;15.70;99.90
8475;DHT22;4274;52.012;8.448;2023-08-17T02:44:01;15.70;99.90
8475;DHT22;4274;52.012;8.448;2023-08-17T02:46:26;15.70;99.90
8475;DHT22;4274;52.012;8.448;2023-08-17T02:48:52;15.70;99.90
8475;DHT22;4274;52.012;8.448;2023-08-17T02:51:18;15.60;99.90
8475;DHT22;4274;52.012;8.448;2023-08-17T02:53:44;15.70;99.90
8475;DHT22;4274;52.012;8.448;2023-08-17T02:56:09;15.70;99.90
8475;DHT22;4274;52.012;8.448;2023-08-17T02:58:39;15.60;99.90
8475;DHT22;4274;52.012;8.448;2023-08-17T03:01:08;15.70;99.90
8475;DHT22;4274;52.012;8.448;2023-08-17T03:03:34;15.70;99.90
8475;DHT22;4274;52.012;8.448;2023-08-17T03:06:01;15.70;99.90
8475;DHT22;4274;52.012;8.448;2023-08-17T03:08:26;15.60;99.90
8475;DHT22;4274;52.012;8.448;2023-08-17T03:10:52;15.60;99.90
8475;DHT22;4274;52.012;8.448;2023-08-17T03:13:17;15.60;99.90
8475;DHT22;4274;52.012;8.448;2023-08-17T03:15:43;15.60;99.90
8475;DHT22;4274;52.012;8.448;2023-08-17T03:18:08;15.60;99.90
8475;DHT22;4274;52.012;8.448;2023-08-17T03:20:34;15.60;99.90
8475;DHT22;4274;52.012;8.448;2023-08-17T03:23:00;15.50;99.90
8475;DHT22;4274;52.012;8.448;2023-08-17T03:25:25;15.50;99.90
8475;DHT22;4274;52.012;8.448;2023-08-17T03:27:51;15.50;99.90
8475;DHT22;4274;52.012;8.448;2023-08-17T03:30:16;15.40;99.90
8475;DHT22;4274;52.012;8.448;2023-08-17T03:32:42;15.40;99.90
8475;DHT22;4274;52.012;8.448;2023-08-17T03:35:08;15.40;99.90
8475;DHT22;4274;52.012;8.448;2023-08-17T03:37:33;15.40;99.90
8475;DHT22;4274;52.012;8.448;2023-08-17T03:39:59;15.40;99.90
8475;DHT22;4274;52.012;8.448;2023-08-17T03:42:26;15.40;99.90
8475;DHT22;4274;52.012;8.448;2023-08-17T03:44:51;15.40;99.90
8475;DHT22;4274;52.012;8.448;2023-08-17T03:47:18;15.30;99.90
8475;DHT22;4274;52.012;8.448;2023-08-17T03:49:43;15.40;99.90
8475;DHT22;4274;52.012;8.448;2023-08-17T03:52:09;15.40;99.90
8475;DHT22;4274;52.012;8.448;2023-08-17T03:54:35;15.40;99.90
8475;DHT22;4274;52.012;8.448;2023-08-17T03:57:01;15.40;99.90
8475;DHT22;4274;52.012;8.448;2023-08-17T03:59:27;15.40;99.90
8475;DHT22;4274;52.012;8.448;2023-08-17T04:01:52;15.40;99.90
8475;DHT22;4274;52.012;8.448;2023-08-17T04:04:18;15.40;99.90
8475;DHT22;4274;52.012;8.448;2023-08-17T04:06:43;15.40;99.90
8475;DHT22;4274;52.012;8.448;2023-08-17T04:09:09;15.40;99.90
8475;DHT22;4274;52.012;8.448;2023-08-17T04:11:35;15.40;99.90
8475;DHT22;4274;52.012;8.448;2023-08-17T04:14:02;15.40;99.90
8475;DHT22;4274;52.012;8.448;2023-08-17T04:16:28;15.40;99.90
8475;DHT22;4274;52.012;8.448;2023-08-17T04:18:53;15.40;99.90
8475;DHT22;4274;52.012;8.448;2023-08-17T04:21:19;15.40;99.90
8475;DHT22;4274;52.012;8.448;2023-08-17T04:23:45;15.40;99.90
8475;DHT22;4274;52.012;8.448;2023-08-17T04:26:11;15.40;99.90
8475;DHT22;4274;52.012;8.448;2023-08-17T04:28:37;15.40;99.90
8475;DHT22;4274;52.012;8.448;2023-08-17T04:31:03;15.40;99.90
8475;DHT22;4274;52.012;8.448;2023-08-17T04:33:28;15.40;99.90
8475;DHT22;4274;52.012;8.448;2023-08-17T04:35:54;15.40;99.90
8475;DHT22;4274;52.012;8.448;2023-08-17T04:38:20;15.40;99.90
8475;DHT22;4274;52.012;8.448;2023-08-17T04:40:45;15.30;99.90
8475;DHT22;4274;52.012;8.448;2023-08-17T04:43:12;15.30;99.90
8475;DHT22;4274;52.012;8.448;2023-08-17T04:45:37;15.40;99.90
8475;DHT22;4274;52.012;8.448;2023-08-17T04:48:04;15.40;99.90
8475;DHT22;4274;52.012;8.448;2023-08-17T04:50:29;15.40;99.90
8475;DHT22;4274;52.012;8.448;2023-08-17T04:52:55;15.40;99.90
8475;DHT22;4274;52.012;8.448;2023-08-17T04:55:20;15.40;99.90
8475;DHT22;4274;52.012;8.448;2023-08-17T04:57:46;15.40;99.90
8475;DHT22;4274;52.012;8.448;2023-08-17T05:00:13;15.40;99.90
8475;DHT22;4274;52.012;8.448;2023-08-17T05:02:39;15.40;99.90
8475;DHT22;4274;52.012;8.448;2023-08-17T05:05:06;15.50;99.90
8475;DHT22;4274;52.012;8.448;2023-08-17T05:07:33;15.50;99.90
8475;DHT22;4274;52.012;8.448;2023-08-17T05:09:58;15.50;99.90
8475;DHT22;4274;52.012;8.448;2023-08-17T05:12:24;15.50;99.90
8475;DHT22;4274;52.012;8.448;2023-08-17T05:14:49;15.50;99.90
8475;DHT22;4274;52.012;8.448;2023-08-17T05:17:15;15.60;99.90
8475;DHT22;4274;52.012;8.448;2023-08-17T05:19:40;15.60;99.90
8475;DHT22;4274;52.012;8.448;2023-08-17T05:22:10;15.60;99.90
8475;DHT22;4274;52.012;8.448;2023-08-17T05:24:36;15.60;99.90
8475;DHT22;4274;52.012;8.448;2023-08-17T05:27:02;15.60;99.90
8475;DHT22;4274;52.012;8.448;2023-08-17T05:29:28;15.60;99.90
8475;DHT22;4274;52.012;8.448;2023-08-17T05:31:53;15.60;99.90
8475;DHT22;4274;52.012;8.448;2023-08-17T05:34:19;15.60;99.90
8475;DHT22;4274;52.012;8.448;2023-08-17T05:36:44;15.60;99.90
8475;DHT22;4274;52.012;8.448;2023-08-17T05:39:10;15.60;99.90
8475;DHT22;4274;52.012;8.448;2023-08-17T05:41:36;15.70;99.90
8475;DHT22;4274;52.012;8.448;2023-08-17T05:44:02;15.70;99.90
8475;DHT22;4274;52.012;8.448;2023-08-17T05:46:27;15.70;99.90
8475;DHT22;4274;52.012;8.448;2023-08-17T05:48:53;15.70;99.90
8475;DHT22;4274;52.012;8.448;2023-08-17T05:51:18;15.70;99.90
8475;DHT22;4274;52.012;8.448;2023-08-17T05:53:44;15.70;99.90
8475;DHT22;4274;52.012;8.448;2023-08-17T05:56:10;15.80;99.90
8475;DHT22;4274;52.012;8.448;2023-08-17T05:58:35;15.80;99.90
8475;DHT22;4274;52.012;8.448;2023-08-17T06:01:08;15.90;99.90
8475;DHT22;4274;52.012;8.448;2023-08-17T06:03:34;15.90;99.90
8475;DHT22;4274;52.012;8.448;2023-08-17T06:06:00;15.90;99.90
8475;DHT22;4274;52.012;8.448;2023-08-17T06:08:25;15.90;99.90
8475;DHT22;4274;52.012;8.448;2023-08-17T06:10:51;16.00;99.90
8475;DHT22;4274;52.012;8.448;2023-08-17T06:13:16;16.00;99.90
8475;DHT22;4274;52.012;8.448;2023-08-17T06:15:42;16.10;99.90
8475;DHT22;4274;52.012;8.448;2023-08-17T06:18:08;16.20;99.90
8475;DHT22;4274;52.012;8.448;2023-08-17T06:20:33;16.20;99.90
8475;DHT22;4274;52.012;8.448;2023-08-17T06:22:59;16.30;99.90
8475;DHT22;4274;52.012;8.448;2023-08-17T06:25:24;16.30;99.90
8475;DHT22;4274;52.012;8.448;2023-08-17T06:27:51;16.40;99.90
8475;DHT22;4274;52.012;8.448;2023-08-17T06:30:17;16.50;99.90
8475;DHT22;4274;52.012;8.448;2023-08-17T06:32:43;16.50;99.90
8475;DHT22;4274;52.012;8.448;2023-08-17T06:35:09;16.50;99.90
8475;DHT22;4274;52.012;8.448;2023-08-17T06:37:34;16.60;99.90
8475;DHT22;4274;52.012;8.448;2023-08-17T06:40:01;16.70;99.90
8475;DHT22;4274;52.012;8.448;2023-08-17T06:42:27;16.70;99.90
8475;DHT22;4274;52.012;8.448;2023-08-17T06:44:53;16.60;99.90
8475;DHT22;4274;52.012;8.448;2023-08-17T06:47:18;16.60;99.90
8475;DHT22;4274;52.012;8.448;2023-08-17T06:49:44;16.60;99.90
8475;DHT22;4274;52.012;8.448;2023-08-17T06:52:09;16.70;99.90
8475;DHT22;4274;52.012;8.448;2023-08-17T06:54:35;16.80;99.90
8475;DHT22;4274;52.012;8.448;2023-08-17T06:57:01;16.80;99.90
8475;DHT22;4274;52.012;8.448;2023-08-17T06:59:26;16.90;99.90
8475;DHT22;4274;52.012;8.448;2023-08-17T07:01:52;16.80;99.90
8475;DHT22;4274;52.012;8.448;2023-08-17T07:04:18;16.80;99.90
8475;DHT22;4274;52.012;8.448;2023-08-17T07:06:43;16.90;99.90
8475;DHT22;4274;52.012;8.448;2023-08-17T07:09:09;16.90;99.90
8475;DHT22;4274;52.012;8.448;2023-08-17T07:11:38;17.00;99.90
8475;DHT22;4274;52.012;8.448;2023-08-17T07:14:04;17.00;99.90
8475;DHT22;4274;52.012;8.448;2023-08-17T07:16:31;17.10;99.90
8475;DHT22;4274;52.012;8.448;2023-08-17T07:18:57;17.10;99.90
8475;DHT22;4274;52.012;8.448;2023-08-17T07:21:23;17.00;99.90
8475;DHT22;4274;52.012;8.448;2023-08-17T07:23:51;17.00;99.90
8475;DHT22;4274;52.012;8.448;2023-08-17T07:26:17;17.00;99.90
8475;DHT22;4274;52.012;8.448;2023-08-17T07:28:44;16.90;99.90
8475;DHT22;4274;52.012;8.448;2023-08-17T07:31:10;16.90;99.90
8475;DHT22;4274;52.012;8.448;2023-08-17T07:33:36;16.90;99.90
8475;DHT22;4274;52.012;8.448;2023-08-17T07:36:02;16.90;99.90
8475;DHT22;4274;52.012;8.448;2023-08-17T07:38:27;17.00;99.90
8475;DHT22;4274;52.012;8.448;2023-08-17T07:40:54;17.10;99.90
8475;DHT22;4274;52.012;8.448;2023-08-17T07:43:20;17.10;99.90
8475;DHT22;4274;52.012;8.448;2023-08-17T07:45:45;17.20;99.90
8475;DHT22;4274;52.012;8.448;2023-08-17T07:48:11;17.20;99.90
8475;DHT22;4274;52.012;8.448;2023-08-17T07:50:37;17.40;99.90
8475;DHT22;4274;52.012;8.448;2023-08-17T07:53:03;17.60;99.90
8475;DHT22;4274;52.012;8.448;2023-08-17T07:55:28;17.90;99.90
8475;DHT22;4274;52.012;8.448;2023-08-17T07:57:54;18.20;99.90
8475;DHT22;4274;52.012;8.448;2023-08-17T08:00:19;18.30;99.90
8475;DHT22;4274;52.012;8.448;2023-08-17T08:02:46;18.40;99.90
8475;DHT22;4274;52.012;8.448;2023-08-17T08:05:12;18.50;99.90
8475;DHT22;4274;52.012;8.448;2023-08-17T08:07:39;18.60;99.90
8475;DHT22;4274;52.012;8.448;2023-08-17T08:10:05;18.70;99.90
8475;DHT22;4274;52.012;8.448;2023-08-17T08:12:31;18.80;99.90
8475;DHT22;4274;52.012;8.448;2023-08-17T08:14:56;18.80;99.90
8475;DHT22;4274;52.012;8.448;2023-08-17T08:17:22;18.90;99.90
8475;DHT22;4274;52.012;8.448;2023-08-17T08:19:47;19.00;99.90
8475;DHT22;4274;52.012;8.448;2023-08-17T08:22:13;19.10;99.90
8475;DHT22;4274;52.012;8.448;2023-08-17T08:24:38;19.10;99.90
8475;DHT22;4274;52.012;8.448;2023-08-17T08:27:06;19.10;99.90
8475;DHT22;4274;52.012;8.448;2023-08-17T08:29:32;19.10;99.90
8475;DHT22;4274;52.012;8.448;2023-08-17T08:31:58;19.00;99.90
8475;DHT22;4274;52.012;8.448;2023-08-17T08:34:25;18.90;99.90
8475;DHT22;4274;52.012;8.448;2023-08-17T08:36:50;18.80;99.90
8475;DHT22;4274;52.012;8.448;2023-08-17T08:39:16;18.80;99.90
8475;DHT22;4274;52.012;8.448;2023-08-17T08:41:41;18.60;99.90
8475;DHT22;4274;52.012;8.448;2023-08-17T08:44:07;18.50;99.90
8475;DHT22;4274;52.012;8.448;2023-08-17T08:46:33;18.50;99.90
8475;DHT22;4274;52.012;8.448;2023-08-17T08:48:59;18.50;99.90
8475;DHT22;4274;52.012;8.448;2023-08-17T08:51:27;18.60;99.90
8475;DHT22;4274;52.012;8.448;2023-08-17T08:54:00;18.50;99.90
8475;DHT22;4274;52.012;8.448;2023-08-17T08:56:28;18.50;99.90
8475;DHT22;4274;52.012;8.448;2023-08-17T08:58:58;18.50;99.90
8475;DHT22;4274;52.012;8.448;2023-08-17T09:01:26;18.40;99.90
8475;DHT22;4274;52.012;8.448;2023-08-17T09:03:52;18.30;99.90
8475;DHT22;4274;52.012;8.448;2023-08-17T09:06:19;18.30;99.90
8475;DHT22;4274;52.012;8.448;2023-08-17T09:08:47;18.30;99.90
8475;DHT22;4274;52.012;8.448;2023-08-17T09:11:13;18.30;99.90
8475;DHT22;4274;52.012;8.448;2023-08-17T09:13:38;18.40;99.90
8475;DHT22;4274;52.012;8.448;2023-08-17T09:16:04;18.40;99.90
8475;DHT22;4274;52.012;8.448;2023-08-17T09:18:30;18.50;99.90
8475;DHT22;4274;52.012;8.448;2023-08-17T09:20:56;18.50;99.90
8475;DHT22;4274;52.012;8.448;2023-08-17T09:23:22;18.50;99.90
8475;DHT22;4274;52.012;8.448;2023-08-17T09:25:49;18.60;99.90
8475;DHT22;4274;52.012;8.448;2023-08-17T09:28:18;18.60;99.90
8475;DHT22;4274;52.012;8.448;2023-08-17T09:30:57;18.60;99.90
8475;DHT22;4274;52.012;8.448;2023-08-17T09:33:28;18.60;99.90
8475;DHT22;4274;52.012;8.448;2023-08-17T09:35:55;18.60;99.90
8475;DHT22;4274;52.012;8.448;2023-08-17T09:38:21;18.80;99.90
8475;DHT22;4274;52.012;8.448;2023-08-17T09:40:47;18.90;99.90
8475;DHT22;4274;52.012;8.448;2023-08-17T09:43:17;19.10;99.90
8475;DHT22;4274;52.012;8.448;2023-08-17T09:45:44;19.20;99.90
8475;DHT22;4274;52.012;8.448;2023-08-17T09:48:15;19.30;99.90
8475;DHT22;4274;52.012;8.448;2023-08-17T09:50:42;19.40;99.90
8475;DHT22;4274;52.012;8.448;2023-08-17T09:53:07;19.40;99.90
8475;DHT22;4274;52.012;8.448;2023-08-17T09:55:38;19.40;99.90
8475;DHT22;4274;52.012;8.448;2023-08-17T09:58:04;19.40;99.90
8475;DHT22;4274;52.012;8.448;2023-08-17T10:00:30;19.30;99.90
8475;DHT22;4274;52.012;8.448;2023-08-17T10:02:58;19.30;99.90
8475;DHT22;4274;52.012;8.448;2023-08-17T10:05:29;19.20;99.90
8475;DHT22;4274;52.012;8.448;2023-08-17T10:07:57;19.10;99.90
8475;DHT22;4274;52.012;8.448;2023-08-17T10:10:26;19.10;99.90
8475;DHT22;4274;52.012;8.448;2023-08-17T10:18:29;19.10;99.90
8475;DHT22;4274;52.012;8.448;2023-08-17T10:21:10;19.00;99.90
8475;DHT22;4274;52.012;8.448;2023-08-17T10:23:38;19.00;99.90
8475;DHT22;4274;52.012;8.448;2023-08-17T10:26:04;19.00;99.90
8475;DHT22;4274;52.012;8.448;2023-08-17T10:28:34;19.00;99.90
8475;DHT22;4274;52.012;8.448;2023-08-17T10:31:00;19.00;99.90
8475;DHT22;4274;52.012;8.448;2023-08-17T10:33:27;18.90;99.90
8475;DHT22;4274;52.012;8.448;2023-08-17T10:35:53;18.90;99.90
8475;DHT22;4274;52.012;8.448;2023-08-17T10:38:19;18.90;99.90
8475;DHT22;4274;52.012;8.448;2023-08-17T10:40:44;18.90;99.90
8475;DHT22;4274;52.012;8.448;2023-08-17T10:43:10;18.90;99.90
8475;DHT22;4274;52.012;8.448;2023-08-17T10:45:37;18.80;99.90
8475;DHT22;4274;52.012;8.448;2023-08-17T10:50:33;18.90;99.90
8475;DHT22;4274;52.012;8.448;2023-08-17T10:53:03;18.90;99.90
8475;DHT22;4274;52.012;8.448;2023-08-17T10:55:57;18.80;99.90
8475;DHT22;4274;52.012;8.448;2023-08-17T10:58:22;18.90;99.90
8475;DHT22;4274;52.012;8.448;2023-08-17T11:00:54;18.80;99.90
8475;DHT22;4274;52.012;8.448;2023-08-17T11:03:21;18.80;99.90
8475;DHT22;4274;52.012;8.448;2023-08-17T11:05:49;18.70;99.90
8475;DHT22;4274;52.012;8.448;2023-08-17T11:08:32;18.60;99.90
8475;DHT22;4274;52.012;8.448;2023-08-17T11:11:06;18.60;99.90
8475;DHT22;4274;52.012;8.448;2023-08-17T11:13:35;18.60;99.90
8475;DHT22;4274;52.012;8.448;2023-08-17T11:16:02;18.60;99.90
8475;DHT22;4274;52.012;8.448;2023-08-17T11:18:28;18.60;99.90
8475;DHT22;4274;52.012;8.448;2023-08-17T11:20:54;18.60;99.90
8475;DHT22;4274;52.012;8.448;2023-08-17T11:23:21;18.70;99.90
8475;DHT22;4274;52.012;8.448;2023-08-17T11:25:47;18.80;99.90
8475;DHT22;4274;52.012;8.448;2023-08-17T11:28:13;18.80;99.90
8475;DHT22;4274;52.012;8.448;2023-08-17T11:30:39;18.80;99.90
8475;DHT22;4274;52.012;8.448;2023-08-17T11:33:06;18.80;99.90
8475;DHT22;4274;52.012;8.448;2023-08-17T11:35:32;18.80;99.90
8475;DHT22;4274;52.012;8.448;2023-08-17T11:37:58;18.70;99.90
8475;DHT22;4274;52.012;8.448;2023-08-17T11:40:25;18.70;99.90
8475;DHT22;4274;52.012;8.448;2023-08-17T11:42:51;18.70;99.90
8475;DHT22;4274;52.012;8.448;2023-08-17T11:45:18;18.70;99.90
8475;DHT22;4274;52.012;8.448;2023-08-17T11:47:43;18.80;99.90
8475;DHT22;4274;52.012;8.448;2023-08-17T11:50:11;18.90;99.90
8475;DHT22;4274;52.012;8.448;2023-08-17T11:52:37;18.90;99.90
8475;DHT22;4274;52.012;8.448;2023-08-17T11:55:03;18.80;99.90
8475;DHT22;4274;52.012;8.448;2023-08-17T11:57:31;18.90;99.90
8475;DHT22;4274;52.012;8.448;2023-08-17T11:59:57;19.00;99.90
8475;DHT22;4274;52.012;8.448;2023-08-17T12:02:24;19.00;99.90
8475;DHT22;4274;52.012;8.448;2023-08-17T12:04:50;19.00;99.90
8475;DHT22;4274;52.012;8.448;2023-08-17T12:07:17;19.10;99.90
8475;DHT22;4274;52.012;8.448;2023-08-17T12:09:43;19.20;99.90
8475;DHT22;4274;52.012;8.448;2023-08-17T12:12:10;19.40;99.90
8475;DHT22;4274;52.012;8.448;2023-08-17T12:14:36;19.40;99.90
8475;DHT22;4274;52.012;8.448;2023-08-17T12:17:02;19.60;99.90
8475;DHT22;4274;52.012;8.448;2023-08-17T12:19:29;19.80;99.90
8475;DHT22;4274;52.012;8.448;2023-08-17T12:21:56;20.00;99.90
8475;DHT22;4274;52.012;8.448;2023-08-17T12:24:24;20.10;99.90
8475;DHT22;4274;52.012;8.448;2023-08-17T12:26:50;20.00;99.90
8475;DHT22;4274;52.012;8.448;2023-08-17T12:29:15;20.00;99.90
8475;DHT22;4274;52.012;8.448;2023-08-17T12:31:41;19.90;99.90
8475;DHT22;4274;52.012;8.448;2023-08-17T12:34:07;19.90;99.90
8475;DHT22;4274;52.012;8.448;2023-08-17T12:36:32;20.00;99.90
8475;DHT22;4274;52.012;8.448;2023-08-17T12:38:58;20.00;99.90
8475;DHT22;4274;52.012;8.448;2023-08-17T12:41:24;20.10;99.90
8475;DHT22;4274;52.012;8.448;2023-08-17T12:43:49;20.00;99.90
8475;DHT22;4274;52.012;8.448;2023-08-17T12:46:15;19.90;99.90
8475;DHT22;4274;52.012;8.448;2023-08-17T12:48:41;19.70;99.90
8475;DHT22;4274;52.012;8.448;2023-08-17T12:51:06;19.60;99.90
8475;DHT22;4274;52.012;8.448;2023-08-17T12:53:32;19.70;99.90
8475;DHT22;4274;52.012;8.448;2023-08-17T12:55:57;19.60;99.90
8475;DHT22;4274;52.012;8.448;2023-08-17T12:58:23;19.70;99.90
8475;DHT22;4274;52.012;8.448;2023-08-17T13:00:49;19.80;99.90
8475;DHT22;4274;52.012;8.448;2023-08-17T13:03:17;19.80;99.90
8475;DHT22;4274;52.012;8.448;2023-08-17T13:05:43;19.70;99.90
8475;DHT22;4274;52.012;8.448;2023-08-17T13:08:08;19.70;99.90
8475;DHT22;4274;52.012;8.448;2023-08-17T13:10:34;19.60;99.90
8475;DHT22;4274;52.012;8.448;2023-08-17T13:13:00;19.60;99.90
8475;DHT22;4274;52.012;8.448;2023-08-17T13:15:25;19.60;99.90
8475;DHT22;4274;52.012;8.448;2023-08-17T13:17:51;19.70;99.90
8475;DHT22;4274;52.012;8.448;2023-08-17T13:20:17;19.70;99.90
8475;DHT22;4274;52.012;8.448;2023-08-17T13:22:42;19.80;99.90
8475;DHT22;4274;52.012;8.448;2023-08-17T13:25:08;19.80;99.90
8475;DHT22;4274;52.012;8.448;2023-08-17T13:27:33;19.80;99.90
8475;DHT22;4274;52.012;8.448;2023-08-17T13:29:59;19.90;99.90
8475;DHT22;4274;52.012;8.448;2023-08-17T13:32:25;20.00;99.90
8475;DHT22;4274;52.012;8.448;2023-08-17T13:34:51;20.00;99.90
8475;DHT22;4274;52.012;8.448;2023-08-17T13:37:17;20.00;99.90
8475;DHT22;4274;52.012;8.448;2023-08-17T13:39:43;20.00;99.90
8475;DHT22;4274;52.012;8.448;2023-08-17T13:42:08;20.10;99.90
8475;DHT22;4274;52.012;8.448;2023-08-17T13:44:34;20.20;99.90
8475;DHT22;4274;52.012;8.448;2023-08-17T13:47:00;20.20;99.90
8475;DHT22;4274;52.012;8.448;2023-08-17T13:49:25;20.20;99.90
8475;DHT22;4274;52.012;8.448;2023-08-17T13:51:53;20.50;99.90
8475;DHT22;4274;52.012;8.448;2023-08-17T13:54:19;20.70;99.90
8475;DHT22;4274;52.012;8.448;2023-08-17T13:56:44;20.80;99.90
8475;DHT22;4274;52.012;8.448;2023-08-17T13:59:10;20.70;99.90
8475;DHT22;4274;52.012;8.448;2023-08-17T14:01:35;20.80;99.90
8475;DHT22;4274;52.012;8.448;2023-08-17T14:04:01;20.60;99.90
8475;DHT22;4274;52.012;8.448;2023-08-17T14:06:29;20.50;99.90
8475;DHT22;4274;52.012;8.448;2023-08-17T14:08:54;20.50;99.90
8475;DHT22;4274;52.012;8.448;2023-08-17T14:11:20;20.40;99.90
8475;DHT22;4274;52.012;8.448;2023-08-17T14:13:45;20.30;99.90
8475;DHT22;4274;52.012;8.448;2023-08-17T14:16:11;20.40;99.90
8475;DHT22;4274;52.012;8.448;2023-08-17T14:18:37;20.50;99.90
8475;DHT22;4274;52.012;8.448;2023-08-17T14:21:02;20.40;99.90
8475;DHT22;4274;52.012;8.448;2023-08-17T14:23:28;20.40;99.90
8475;DHT22;4274;52.012;8.448;2023-08-17T14:25:53;20.30;99.90
8475;DHT22;4274;52.012;8.448;2023-08-17T14:28:19;20.40;99.90
8475;DHT22;4274;52.012;8.448;2023-08-17T14:30:45;20.50;99.90
8475;DHT22;4274;52.012;8.448;2023-08-17T14:33:11;20.50;99.90
8475;DHT22;4274;52.012;8.448;2023-08-17T14:35:38;20.20;99.90
8475;DHT22;4274;52.012;8.448;2023-08-17T14:38:03;20.00;99.90
8475;DHT22;4274;52.012;8.448;2023-08-17T14:40:29;20.00;99.90
8475;DHT22;4274;52.012;8.448;2023-08-17T14:42:54;20.10;99.90
8475;DHT22;4274;52.012;8.448;2023-08-17T14:45:20;20.10;99.90
8475;DHT22;4274;52.012;8.448;2023-08-17T14:47:46;20.00;99.90
8475;DHT22;4274;52.012;8.448;2023-08-17T14:50:11;19.70;99.90
8475;DHT22;4274;52.012;8.448;2023-08-17T14:52:39;19.60;99.90
8475;DHT22;4274;52.012;8.448;2023-08-17T14:55:05;19.50;99.90
8475;DHT22;4274;52.012;8.448;2023-08-17T14:57:30;19.40;99.90
8475;DHT22;4274;52.012;8.448;2023-08-17T14:59:56;19.30;99.90
8475;DHT22;4274;52.012;8.448;2023-08-17T15:02:22;19.30;99.90
8475;DHT22;4274;52.012;8.448;2023-08-17T15:04:47;19.40;99.90
8475;DHT22;4274;52.012;8.448;2023-08-17T15:07:13;19.50;99.90
8475;DHT22;4274;52.012;8.448;2023-08-17T15:09:39;19.50;99.90
8475;DHT22;4274;52.012;8.448;2023-08-17T15:12:04;19.40;99.90
8475;DHT22;4274;52.012;8.448;2023-08-17T15:14:30;19.30;99.90
8475;DHT22;4274;52.012;8.448;2023-08-17T15:16:56;19.20;99.90
8475;DHT22;4274;52.012;8.448;2023-08-17T15:19:21;19.10;99.90
8475;DHT22;4274;52.012;8.448;2023-08-17T15:21:47;19.00;99.90
8475;DHT22;4274;52.012;8.448;2023-08-17T15:24:13;18.90;99.90
8475;DHT22;4274;52.012;8.448;2023-08-17T15:26:38;18.80;99.90
8475;DHT22;4274;52.012;8.448;2023-08-17T15:29:04;18.80;99.90
8475;DHT22;4274;52.012;8.448;2023-08-17T15:31:30;18.70;99.90
8475;DHT22;4274;52.012;8.448;2023-08-17T15:33:55;18.70;99.90
8475;DHT22;4274;52.012;8.448;2023-08-17T15:36:21;18.70;99.90
8475;DHT22;4274;52.012;8.448;2023-08-17T15:38:51;18.60;99.90
8475;DHT22;4274;52.012;8.448;2023-08-17T15:41:18;18.50;99.90
8475;DHT22;4274;52.012;8.448;2023-08-17T15:43:43;18.40;99.90
8475;DHT22;4274;52.012;8.448;2023-08-17T15:46:10;18.30;99.90
8475;DHT22;4274;52.012;8.448;2023-08-17T15:48:36;18.30;99.90
8475;DHT22;4274;52.012;8.448;2023-08-17T15:51:01;18.20;99.90
8475;DHT22;4274;52.012;8.448;2023-08-17T15:53:27;18.20;99.90
8475;DHT22;4274;52.012;8.448;2023-08-17T15:55:52;18.10;99.90
8475;DHT22;4274;52.012;8.448;2023-08-17T15:58:18;18.10;99.90
8475;DHT22;4274;52.012;8.448;2023-08-17T16:00:44;18.10;99.90
8475;DHT22;4274;52.012;8.448;2023-08-17T16:03:09;18.10;99.90
8475;DHT22;4274;52.012;8.448;2023-08-17T16:05:35;18.10;99.90
8475;DHT22;4274;52.012;8.448;2023-08-17T16:08:00;18.00;99.90